sensor_id;sensor_type;location;lat;lon;timestamp;P1;P2;P0
44045;PMS7003;29709;52.396;16.796;2024-02-21T00:01:04;1;0;0
44045;PMS7003;29709;52.396;16.796;2024-02-21T00:04:18;0;0;0
44045;PMS7003;29709;52.396;16.796;2024-02-21T00:07:31;1;0;0
44045;PMS7003;29709;52.396;16.796;2024-02-21T00:10:44;1;1;0
44045;PMS7003;29709;52.396;16.796;2024-02-21T00:13:57;0;0;0
44045;PMS7003;29709;52.396;16.796;2024-02-21T00:17:10;1;0;0
44045;PMS7003;29709;52.396;16.796;2024-02-21T00:20:23;1;0;0
44045;PMS7003;29709;52.396;16.796;2024-02-21T00:23:38;1;1;1
44045;PMS7003;29709;52.396;16.796;2024-02-21T00:26:53;1;1;1
44045;PMS7003;29709;52.396;16.796;2024-02-21T00:30:07;0;0;0
44045;PMS7003;29709;52.396;16.796;2024-02-21T00:33:23;1;0;0
44045;PMS7003;29709;52.396;16.796;2024-02-21T00:36:36;1;0;0
44045;PMS7003;29709;52.396;16.796;2024-02-21T00:39:49;1;0;0
44045;PMS7003;29709;52.396;16.796;2024-02-21T00:43:03;0;0;0
44045;PMS7003;29709;52.396;16.796;2024-02-21T00:46:16;0;0;0
44045;PMS7003;29709;52.396;16.796;2024-02-21T00:49:29;0;0;0
44045;PMS7003;29709;52.396;16.796;2024-02-21T00:53:17;1;0;0
44045;PMS7003;29709;52.396;16.796;2024-02-21T00:56:31;0;0;0
44045;PMS7003;29709;52.396;16.796;2024-02-21T00:59:44;0;0;0
44045;PMS7003;29709;52.396;16.796;2024-02-21T01:02:57;0;0;0
44045;PMS7003;29709;52.396;16.796;2024-02-21T01:06:10;1;1;0
44045;PMS7003;29709;52.396;16.796;2024-02-21T01:09:23;1;1;0
44045;PMS7003;29709;52.396;16.796;2024-02-21T01:12:36;1;1;1
44045;PMS7003;29709;52.396;16.796;2024-02-21T01:15:49;5;1;1
44045;PMS7003;29709;52.396;16.796;2024-02-21T01:19:02;3;3;1
44045;PMS7003;29709;52.396;16.796;2024-02-21T01:22:16;3;3;1
44045;PMS7003;29709;52.396;16.796;2024-02-21T01:25:29;2;2;1
44045;PMS7003;29709;52.396;16.796;2024-02-21T01:28:42;1;1;1
44045;PMS7003;29709;52.396;16.796;2024-02-21T01:31:55;1;1;1
44045;PMS7003;29709;52.396;16.796;2024-02-21T01:35:08;2;1;1
44045;PMS7003;29709;52.396;16.796;2024-02-21T01:38:22;3;1;1
44045;PMS7003;29709;52.396;16.796;2024-02-21T01:41:35;0;0;0
44045;PMS7003;29709;52.396;16.796;2024-02-21T01:44:49;0;0;0
44045;PMS7003;29709;52.396;16.796;2024-02-21T01:48:02;0;0;0
44045;PMS7003;29709;52.396;16.796;2024-02-21T01:51:15;1;1;1
44045;PMS7003;29709;52.396;16.796;2024-02-21T01:54:28;1;1;0
44045;PMS7003;29709;52.396;16.796;2024-02-21T02:01:25;1;0;0
44045;PMS7003;29709;52.396;16.796;2024-02-21T02:04:38;2;1;0
44045;PMS7003;29709;52.396;16.796;2024-02-21T02:07:52;1;0;0
44045;PMS7003;29709;52.396;16.796;2024-02-21T02:11:05;1;0;0
44045;PMS7003;29709;52.396;16.796;2024-02-21T02:16:38;0;0;0
44045;PMS7003;29709;52.396;16.796;2024-02-21T02:19:52;2;1;0
44045;PMS7003;29709;52.396;16.796;2024-02-21T02:26:27;0;0;0
44045;PMS7003;29709;52.396;16.796;2024-02-21T02:29:40;1;1;0
44045;PMS7003;29709;52.396;16.796;2024-02-21T02:32:53;1;0;0
44045;PMS7003;29709;52.396;16.796;2024-02-21T02:36:06;1;0;0
44045;PMS7003;29709;52.396;16.796;2024-02-21T02:39:20;1;1;0
44045;PMS7003;29709;52.396;16.796;2024-02-21T02:46:16;0;0;0
44045;PMS7003;29709;52.396;16.796;2024-02-21T02:49:29;0;0;0
44045;PMS7003;29709;52.396;16.796;2024-02-21T02:52:42;0;0;0
44045;PMS7003;29709;52.396;16.796;2024-02-21T02:55:55;0;0;0
44045;PMS7003;29709;52.396;16.796;2024-02-21T02:59:08;1;0;0
44045;PMS7003;29709;52.396;16.796;2024-02-21T03:02:21;0;0;0
44045;PMS7003;29709;52.396;16.796;2024-02-21T03:05:35;2;1;1
44045;PMS7003;29709;52.396;16.796;2024-02-21T03:08:48;2;1;1
44045;PMS7003;29709;52.396;16.796;2024-02-21T03:12:01;1;0;0
44045;PMS7003;29709;52.396;16.796;2024-02-21T03:15:17;1;1;0
44045;PMS7003;29709;52.396;16.796;2024-02-21T03:18:30;1;1;0
44045;PMS7003;29709;52.396;16.796;2024-02-21T03:21:44;1;0;0
44045;PMS7003;29709;52.396;16.796;2024-02-21T03:24:57;0;0;0
44045;PMS7003;29709;52.396;16.796;2024-02-21T03:28:10;1;1;0
44045;PMS7003;29709;52.396;16.796;2024-02-21T03:31:23;2;0;0
44045;PMS7003;29709;52.396;16.796;2024-02-21T03:34:36;2;2;1
44045;PMS7003;29709;52.396;16.796;2024-02-21T03:37:50;0;0;0
44045;PMS7003;29709;52.396;16.796;2024-02-21T03:41:03;1;0;0
44045;PMS7003;29709;52.396;16.796;2024-02-21T03:44:16;0;0;0
44045;PMS7003;29709;52.396;16.796;2024-02-21T03:47:29;1;1;0
44045;PMS7003;29709;52.396;16.796;2024-02-21T03:50:43;2;2;1
44045;PMS7003;29709;52.396;16.796;2024-02-21T03:53:56;2;1;0
44045;PMS7003;29709;52.396;16.796;2024-02-21T04:00:51;1;1;0
44045;PMS7003;29709;52.396;16.796;2024-02-21T04:04:05;0;0;0
44045;PMS7003;29709;52.396;16.796;2024-02-21T04:07:18;0;0;0
44045;PMS7003;29709;52.396;16.796;2024-02-21T04:10:31;1;0;0
44045;PMS7003;29709;52.396;16.796;2024-02-21T04:17:34;0;0;0
44045;PMS7003;29709;52.396;16.796;2024-02-21T04:20:47;0;0;0
44045;PMS7003;29709;52.396;16.796;2024-02-21T04:24:00;2;1;0
44045;PMS7003;29709;52.396;16.796;2024-02-21T04:27:16;1;0;0
44045;PMS7003;29709;52.396;16.796;2024-02-21T04:30:29;0;0;0
44045;PMS7003;29709;52.396;16.796;2024-02-21T04:33:42;0;0;0
44045;PMS7003;29709;52.396;16.796;2024-02-21T04:36:55;0;0;0
44045;PMS7003;29709;52.396;16.796;2024-02-21T04:40:09;0;0;0
44045;PMS7003;29709;52.396;16.796;2024-02-21T04:43:22;0;0;0
44045;PMS7003;29709;52.396;16.796;2024-02-21T04:46:36;0;0;0
44045;PMS7003;29709;52.396;16.796;2024-02-21T04:49:49;0;0;0
44045;PMS7003;29709;52.396;16.796;2024-02-21T04:53:02;2;0;0
44045;PMS7003;29709;52.396;16.796;2024-02-21T04:56:16;1;0;0
44045;PMS7003;29709;52.396;16.796;2024-02-21T04:59:29;1;0;0
44045;PMS7003;29709;52.396;16.796;2024-02-21T05:02:42;0;0;0
44045;PMS7003;29709;52.396;16.796;2024-02-21T05:05:55;0;0;0
44045;PMS7003;29709;52.396;16.796;2024-02-21T05:09:08;2;0;0
44045;PMS7003;29709;52.396;16.796;2024-02-21T05:12:22;0;0;0
44045;PMS7003;29709;52.396;16.796;2024-02-21T05:15:35;0;0;0
44045;PMS7003;29709;52.396;16.796;2024-02-21T05:18:48;2;0;0
44045;PMS7003;29709;52.396;16.796;2024-02-21T05:22:01;1;1;0
44045;PMS7003;29709;52.396;16.796;2024-02-21T05:25:15;1;0;0
44045;PMS7003;29709;52.396;16.796;2024-02-21T05:28:28;1;1;0
44045;PMS7003;29709;52.396;16.796;2024-02-21T05:35:10;3;1;0
44045;PMS7003;29709;52.396;16.796;2024-02-21T05:38:23;1;1;0
44045;PMS7003;29709;52.396;16.796;2024-02-21T05:41:36;0;0;0
44045;PMS7003;29709;52.396;16.796;2024-02-21T05:44:49;2;1;0
44045;PMS7003;29709;52.396;16.796;2024-02-21T05:48:03;0;0;0
44045;PMS7003;29709;52.396;16.796;2024-02-21T05:51:17;1;0;0
44045;PMS7003;29709;52.396;16.796;2024-02-21T05:54:33;2;1;1
44045;PMS7003;29709;52.396;16.796;2024-02-21T05:57:46;1;1;1
44045;PMS7003;29709;52.396;16.796;2024-02-21T06:01:00;1;0;0
44045;PMS7003;29709;52.396;16.796;2024-02-21T06:04:15;0;0;0
44045;PMS7003;29709;52.396;16.796;2024-02-21T06:07:29;0;0;0
44045;PMS7003;29709;52.396;16.796;2024-02-21T06:10:42;1;1;0
44045;PMS7003;29709;52.396;16.796;2024-02-21T06:13:56;2;1;0
44045;PMS7003;29709;52.396;16.796;2024-02-21T06:17:09;0;0;0
44045;PMS7003;29709;52.396;16.796;2024-02-21T06:20:22;2;0;0
44045;PMS7003;29709;52.396;16.796;2024-02-21T06:23:36;2;0;0
44045;PMS7003;29709;52.396;16.796;2024-02-21T06:26:50;0;0;0
44045;PMS7003;29709;52.396;16.796;2024-02-21T06:30:03;3;1;0
44045;PMS7003;29709;52.396;16.796;2024-02-21T06:33:17;2;1;0
44045;PMS7003;29709;52.396;16.796;2024-02-21T06:36:30;1;0;0
44045;PMS7003;29709;52.396;16.796;2024-02-21T06:39:44;0;0;0
44045;PMS7003;29709;52.396;16.796;2024-02-21T06:42:57;2;1;0
44045;PMS7003;29709;52.396;16.796;2024-02-21T06:46:12;0;0;0
44045;PMS7003;29709;52.396;16.796;2024-02-21T06:49:30;0;0;0
44045;PMS7003;29709;52.396;16.796;2024-02-21T06:52:43;3;1;0
44045;PMS7003;29709;52.396;16.796;2024-02-21T06:55:56;2;1;1
44045;PMS7003;29709;52.396;16.796;2024-02-21T06:59:10;1;1;0
44045;PMS7003;29709;52.396;16.796;2024-02-21T07:02:28;2;1;0
44045;PMS7003;29709;52.396;16.796;2024-02-21T07:05:41;0;0;0
44045;PMS7003;29709;52.396;16.796;2024-02-21T07:08:54;0;0;0
44045;PMS7003;29709;52.396;16.796;2024-02-21T07:12:08;2;1;1
44045;PMS7003;29709;52.396;16.796;2024-02-21T07:15:21;0;0;0
44045;PMS7003;29709;52.396;16.796;2024-02-21T07:18:34;2;1;0
44045;PMS7003;29709;52.396;16.796;2024-02-21T07:21:47;0;0;0
44045;PMS7003;29709;52.396;16.796;2024-02-21T07:25:01;0;0;0
44045;PMS7003;29709;52.396;16.796;2024-02-21T07:28:14;0;0;0
44045;PMS7003;29709;52.396;16.796;2024-02-21T07:31:29;2;1;0
44045;PMS7003;29709;52.396;16.796;2024-02-21T07:34:43;0;0;0
44045;PMS7003;29709;52.396;16.796;2024-02-21T07:37:56;0;0;0
44045;PMS7003;29709;52.396;16.796;2024-02-21T07:41:09;1;1;0
44045;PMS7003;29709;52.396;16.796;2024-02-21T07:44:25;1;1;1
44045;PMS7003;29709;52.396;16.796;2024-02-21T07:47:38;1;1;1
44045;PMS7003;29709;52.396;16.796;2024-02-21T07:50:51;2;2;1
44045;PMS7003;29709;52.396;16.796;2024-02-21T07:54:04;0;0;0
44045;PMS7003;29709;52.396;16.796;2024-02-21T07:57:18;0;0;0
44045;PMS7003;29709;52.396;16.796;2024-02-21T08:00:31;2;1;1
44045;PMS7003;29709;52.396;16.796;2024-02-21T08:03:44;2;1;0
44045;PMS7003;29709;52.396;16.796;2024-02-21T08:06:58;1;0;0
44045;PMS7003;29709;52.396;16.796;2024-02-21T08:10:16;1;0;0
44045;PMS7003;29709;52.396;16.796;2024-02-21T08:13:29;1;1;1
44045;PMS7003;29709;52.396;16.796;2024-02-21T08:16:43;2;1;0
44045;PMS7003;29709;52.396;16.796;2024-02-21T08:19:56;2;1;0
44045;PMS7003;29709;52.396;16.796;2024-02-21T08:23:09;2;1;0
44045;PMS7003;29709;52.396;16.796;2024-02-21T08:26:24;1;1;0
44045;PMS7003;29709;52.396;16.796;2024-02-21T08:29:43;0;0;0
44045;PMS7003;29709;52.396;16.796;2024-02-21T08:32:56;3;2;2
44045;PMS7003;29709;52.396;16.796;2024-02-21T08:36:16;1;0;0
44045;PMS7003;29709;52.396;16.796;2024-02-21T08:39:33;2;1;1
44045;PMS7003;29709;52.396;16.796;2024-02-21T08:42:47;1;0;0
44045;PMS7003;29709;52.396;16.796;2024-02-21T08:46:01;2;1;1
44045;PMS7003;29709;52.396;16.796;2024-02-21T08:49:14;3;2;2
44045;PMS7003;29709;52.396;16.796;2024-02-21T08:52:28;2;1;1
44045;PMS7003;29709;52.396;16.796;2024-02-21T08:55:41;1;1;0
44045;PMS7003;29709;52.396;16.796;2024-02-21T08:58:58;1;1;1
44045;PMS7003;29709;52.396;16.796;2024-02-21T09:02:11;2;2;1
44045;PMS7003;29709;52.396;16.796;2024-02-21T09:05:24;1;1;0
44045;PMS7003;29709;52.396;16.796;2024-02-21T09:08:37;1;0;0
44045;PMS7003;29709;52.396;16.796;2024-02-21T09:11:51;2;1;1
44045;PMS7003;29709;52.396;16.796;2024-02-21T09:15:04;1;1;0
44045;PMS7003;29709;52.396;16.796;2024-02-21T09:18:20;0;0;0
44045;PMS7003;29709;52.396;16.796;2024-02-21T09:21:33;2;1;0
44045;PMS7003;29709;52.396;16.796;2024-02-21T09:24:46;1;0;0
44045;PMS7003;29709;52.396;16.796;2024-02-21T09:28:01;2;2;1
44045;PMS7003;29709;52.396;16.796;2024-02-21T09:31:15;1;0;0
44045;PMS7003;29709;52.396;16.796;2024-02-21T09:34:29;1;1;1
44045;PMS7003;29709;52.396;16.796;2024-02-21T09:37:42;1;1;0
44045;PMS7003;29709;52.396;16.796;2024-02-21T09:40:59;1;1;1
44045;PMS7003;29709;52.396;16.796;2024-02-21T09:44:18;1;0;0
44045;PMS7003;29709;52.396;16.796;2024-02-21T09:47:34;0;0;0
44045;PMS7003;29709;52.396;16.796;2024-02-21T09:50:57;2;1;1
44045;PMS7003;29709;52.396;16.796;2024-02-21T09:54:12;1;1;1
44045;PMS7003;29709;52.396;16.796;2024-02-21T09:57:25;2;1;1
44045;PMS7003;29709;52.396;16.796;2024-02-21T10:00:38;2;1;0
44045;PMS7003;29709;52.396;16.796;2024-02-21T10:03:52;4;2;2
44045;PMS7003;29709;52.396;16.796;2024-02-21T10:07:05;2;1;1
44045;PMS7003;29709;52.396;16.796;2024-02-21T10:10:18;2;2;2
44045;PMS7003;29709;52.396;16.796;2024-02-21T10:13:34;3;2;2
44045;PMS7003;29709;52.396;16.796;2024-02-21T10:16:48;4;2;1
44045;PMS7003;29709;52.396;16.796;2024-02-21T10:20:09;2;2;2
44045;PMS7003;29709;52.396;16.796;2024-02-21T10:23:24;2;1;0
44045;PMS7003;29709;52.396;16.796;2024-02-21T10:26:37;2;1;1
44045;PMS7003;29709;52.396;16.796;2024-02-21T10:29:50;2;1;1
44045;PMS7003;29709;52.396;16.796;2024-02-21T10:33:05;2;1;1
44045;PMS7003;29709;52.396;16.796;2024-02-21T10:36:18;2;2;1
44045;PMS7003;29709;52.396;16.796;2024-02-21T10:39:32;1;1;0
44045;PMS7003;29709;52.396;16.796;2024-02-21T10:42:46;1;0;0
44045;PMS7003;29709;52.396;16.796;2024-02-21T10:46:02;1;1;0
44045;PMS7003;29709;52.396;16.796;2024-02-21T10:52:46;2;1;1
44045;PMS7003;29709;52.396;16.796;2024-02-21T10:59:33;2;1;1
44045;PMS7003;29709;52.396;16.796;2024-02-21T11:02:47;2;0;0
44045;PMS7003;29709;52.396;16.796;2024-02-21T11:06:02;1;1;0
44045;PMS7003;29709;52.396;16.796;2024-02-21T11:09:18;0;0;0
44045;PMS7003;29709;52.396;16.796;2024-02-21T11:12:32;1;0;0
44045;PMS7003;29709;52.396;16.796;2024-02-21T11:15:48;2;2;1
44045;PMS7003;29709;52.396;16.796;2024-02-21T11:19:05;2;2;0
44045;PMS7003;29709;52.396;16.796;2024-02-21T11:22:19;0;0;0
44045;PMS7003;29709;52.396;16.796;2024-02-21T11:25:37;1;1;0
44045;PMS7003;29709;52.396;16.796;2024-02-21T11:32:14;2;1;0
44045;PMS7003;29709;52.396;16.796;2024-02-21T11:35:31;1;0;0
44045;PMS7003;29709;52.396;16.796;2024-02-21T11:38:46;2;1;1
44045;PMS7003;29709;52.396;16.796;2024-02-21T11:45:25;2;2;0
44045;PMS7003;29709;52.396;16.796;2024-02-21T11:48:40;3;2;2
44045;PMS7003;29709;52.396;16.796;2024-02-21T11:52:02;0;0;0
44045;PMS7003;29709;52.396;16.796;2024-02-21T11:55:19;3;2;2
44045;PMS7003;29709;52.396;16.796;2024-02-21T11:58:33;2;2;1
44045;PMS7003;29709;52.396;16.796;2024-02-21T12:01:46;0;0;0
44045;PMS7003;29709;52.396;16.796;2024-02-21T12:05:01;3;2;2
44045;PMS7003;29709;52.396;16.796;2024-02-21T12:08:15;4;0;0
44045;PMS7003;29709;52.396;16.796;2024-02-21T12:11:28;1;1;1
44045;PMS7003;29709;52.396;16.796;2024-02-21T12:14:41;2;1;1
44045;PMS7003;29709;52.396;16.796;2024-02-21T12:17:55;2;1;1
44045;PMS7003;29709;52.396;16.796;2024-02-21T12:21:08;2;1;0
44045;PMS7003;29709;52.396;16.796;2024-02-21T12:24:24;2;2;1
44045;PMS7003;29709;52.396;16.796;2024-02-21T12:27:39;1;1;1
44045;PMS7003;29709;52.396;16.796;2024-02-21T12:30:52;4;3;1
44045;PMS7003;29709;52.396;16.796;2024-02-21T12:34:05;2;2;1
44045;PMS7003;29709;52.396;16.796;2024-02-21T12:37:19;3;1;1
44045;PMS7003;29709;52.396;16.796;2024-02-21T12:40:32;3;2;1
44045;PMS7003;29709;52.396;16.796;2024-02-21T12:43:46;3;3;1
44045;PMS7003;29709;52.396;16.796;2024-02-21T12:47:00;2;2;1
44045;PMS7003;29709;52.396;16.796;2024-02-21T12:50:13;3;2;1
44045;PMS7003;29709;52.396;16.796;2024-02-21T12:53:27;1;0;0
44045;PMS7003;29709;52.396;16.796;2024-02-21T12:56:42;2;2;1
44045;PMS7003;29709;52.396;16.796;2024-02-21T12:59:55;0;0;0
44045;PMS7003;29709;52.396;16.796;2024-02-21T13:03:08;3;2;1
44045;PMS7003;29709;52.396;16.796;2024-02-21T13:06:25;3;2;1
44045;PMS7003;29709;52.396;16.796;2024-02-21T13:09:38;1;1;0
44045;PMS7003;29709;52.396;16.796;2024-02-21T13:12:51;1;0;0
44045;PMS7003;29709;52.396;16.796;2024-02-21T13:16:05;3;2;1
44045;PMS7003;29709;52.396;16.796;2024-02-21T13:19:18;5;4;2
44045;PMS7003;29709;52.396;16.796;2024-02-21T13:22:31;3;1;1
44045;PMS7003;29709;52.396;16.796;2024-02-21T13:25:45;2;2;1
44045;PMS7003;29709;52.396;16.796;2024-02-21T13:28:58;2;2;1
44045;PMS7003;29709;52.396;16.796;2024-02-21T13:32:11;2;1;1
44045;PMS7003;29709;52.396;16.796;2024-02-21T13:35:25;2;2;2
44045;PMS7003;29709;52.396;16.796;2024-02-21T13:38:38;0;0;0
44045;PMS7003;29709;52.396;16.796;2024-02-21T13:41:51;2;2;1
44045;PMS7003;29709;52.396;16.796;2024-02-21T13:45:05;0;0;0
44045;PMS7003;29709;52.396;16.796;2024-02-21T13:48:19;1;0;0
44045;PMS7003;29709;52.396;16.796;2024-02-21T13:51:33;1;1;1
44045;PMS7003;29709;52.396;16.796;2024-02-21T13:54:50;2;2;1
44045;PMS7003;29709;52.396;16.796;2024-02-21T13:58:03;3;3;3
44045;PMS7003;29709;52.396;16.796;2024-02-21T14:06:33;2;2;1
44045;PMS7003;29709;52.396;16.796;2024-02-21T14:09:48;1;1;1
44045;PMS7003;29709;52.396;16.796;2024-02-21T14:13:01;3;3;2
44045;PMS7003;29709;52.396;16.796;2024-02-21T14:16:16;4;2;2
44045;PMS7003;29709;52.396;16.796;2024-02-21T14:19:29;2;1;1
44045;PMS7003;29709;52.396;16.796;2024-02-21T14:22:43;1;1;1
44045;PMS7003;29709;52.396;16.796;2024-02-21T14:25:56;1;0;0
44045;PMS7003;29709;52.396;16.796;2024-02-21T14:29:10;1;0;0
44045;PMS7003;29709;52.396;16.796;2024-02-21T14:32:23;2;2;1
44045;PMS7003;29709;52.396;16.796;2024-02-21T14:35:36;2;0;0
44045;PMS7003;29709;52.396;16.796;2024-02-21T14:38:50;1;1;0
44045;PMS7003;29709;52.396;16.796;2024-02-21T14:42:04;2;1;1
44045;PMS7003;29709;52.396;16.796;2024-02-21T14:45:17;1;1;1
44045;PMS7003;29709;52.396;16.796;2024-02-21T14:48:31;1;1;0
44045;PMS7003;29709;52.396;16.796;2024-02-21T14:51:45;0;0;0
44045;PMS7003;29709;52.396;16.796;2024-02-21T14:54:58;2;1;1
44045;PMS7003;29709;52.396;16.796;2024-02-21T14:58:12;0;0;0
44045;PMS7003;29709;52.396;16.796;2024-02-21T15:01:25;2;1;1
44045;PMS7003;29709;52.396;16.796;2024-02-21T15:04:38;1;1;0
44045;PMS7003;29709;52.396;16.796;2024-02-21T15:07:52;3;1;1
44045;PMS7003;29709;52.396;16.796;2024-02-21T15:11:05;1;1;0
44045;PMS7003;29709;52.396;16.796;2024-02-21T15:14:18;1;1;1
44045;PMS7003;29709;52.396;16.796;2024-02-21T15:17:32;3;3;2
44045;PMS7003;29709;52.396;16.796;2024-02-21T15:20:46;4;3;2
44045;PMS7003;29709;52.396;16.796;2024-02-21T15:23:59;3;0;0
44045;PMS7003;29709;52.396;16.796;2024-02-21T15:27:14;2;1;0
44045;PMS7003;29709;52.396;16.796;2024-02-21T15:30:28;9;7;6
44045;PMS7003;29709;52.396;16.796;2024-02-21T15:37:27;5;4;3
44045;PMS7003;29709;52.396;16.796;2024-02-21T15:40:40;2;2;1
44045;PMS7003;29709;52.396;16.796;2024-02-21T15:43:53;2;2;1
44045;PMS7003;29709;52.396;16.796;2024-02-21T15:47:09;1;1;1
44045;PMS7003;29709;52.396;16.796;2024-02-21T15:50:22;2;2;1
44045;PMS7003;29709;52.396;16.796;2024-02-21T15:53:35;3;2;1
44045;PMS7003;29709;52.396;16.796;2024-02-21T15:56:50;2;1;1
44045;PMS7003;29709;52.396;16.796;2024-02-21T16:00:05;2;1;0
44045;PMS7003;29709;52.396;16.796;2024-02-21T16:03:23;2;2;1
44045;PMS7003;29709;52.396;16.796;2024-02-21T16:06:36;2;2;1
44045;PMS7003;29709;52.396;16.796;2024-02-21T16:09:49;3;3;2
44045;PMS7003;29709;52.396;16.796;2024-02-21T16:13:03;2;2;2
44045;PMS7003;29709;52.396;16.796;2024-02-21T16:16:16;5;4;2
44045;PMS7003;29709;52.396;16.796;2024-02-21T16:19:29;2;2;1
44045;PMS7003;29709;52.396;16.796;2024-02-21T16:22:42;4;2;2
44045;PMS7003;29709;52.396;16.796;2024-02-21T16:25:56;1;1;0
44045;PMS7003;29709;52.396;16.796;2024-02-21T16:29:10;4;2;2
44045;PMS7003;29709;52.396;16.796;2024-02-21T16:32:24;2;2;1
44045;PMS7003;29709;52.396;16.796;2024-02-21T16:35:40;1;1;1
44045;PMS7003;29709;52.396;16.796;2024-02-21T16:38:53;0;0;0
44045;PMS7003;29709;52.396;16.796;2024-02-21T16:42:07;3;2;2
44045;PMS7003;29709;52.396;16.796;2024-02-21T16:45:20;3;3;3
44045;PMS7003;29709;52.396;16.796;2024-02-21T16:48:33;3;2;2
44045;PMS7003;29709;52.396;16.796;2024-02-21T16:51:47;3;3;2
44045;PMS7003;29709;52.396;16.796;2024-02-21T16:55:01;3;3;2
44045;PMS7003;29709;52.396;16.796;2024-02-21T16:58:15;2;2;1
44045;PMS7003;29709;52.396;16.796;2024-02-21T17:01:34;3;3;2
44045;PMS7003;29709;52.396;16.796;2024-02-21T17:04:51;4;3;2
44045;PMS7003;29709;52.396;16.796;2024-02-21T17:08:06;4;3;2
44045;PMS7003;29709;52.396;16.796;2024-02-21T17:11:21;3;2;0
44045;PMS7003;29709;52.396;16.796;2024-02-21T17:14:34;3;2;2
44045;PMS7003;29709;52.396;16.796;2024-02-21T17:17:48;10;4;3
44045;PMS7003;29709;52.396;16.796;2024-02-21T17:21:01;2;1;0
44045;PMS7003;29709;52.396;16.796;2024-02-21T17:24:16;3;2;2
44045;PMS7003;29709;52.396;16.796;2024-02-21T17:27:29;3;2;1
44045;PMS7003;29709;52.396;16.796;2024-02-21T17:34:00;2;2;2
44045;PMS7003;29709;52.396;16.796;2024-02-21T17:37:14;4;3;2
44045;PMS7003;29709;52.396;16.796;2024-02-21T17:40:27;2;2;2
44045;PMS7003;29709;52.396;16.796;2024-02-21T17:43:40;3;3;2
44045;PMS7003;29709;52.396;16.796;2024-02-21T17:46:54;3;3;2
44045;PMS7003;29709;52.396;16.796;2024-02-21T17:50:08;5;4;3
44045;PMS7003;29709;52.396;16.796;2024-02-21T17:53:22;4;3;3
44045;PMS7003;29709;52.396;16.796;2024-02-21T17:56:35;3;2;2
44045;PMS7003;29709;52.396;16.796;2024-02-21T17:59:48;3;2;2
44045;PMS7003;29709;52.396;16.796;2024-02-21T18:03:01;4;3;2
44045;PMS7003;29709;52.396;16.796;2024-02-21T18:06:16;3;2;2
44045;PMS7003;29709;52.396;16.796;2024-02-21T18:09:29;3;2;2
44045;PMS7003;29709;52.396;16.796;2024-02-21T18:16:26;7;3;2
44045;PMS7003;29709;52.396;16.796;2024-02-21T18:19:39;4;3;2
44045;PMS7003;29709;52.396;16.796;2024-02-21T18:22:53;5;2;2
44045;PMS7003;29709;52.396;16.796;2024-02-21T18:26:06;0;0;0
44045;PMS7003;29709;52.396;16.796;2024-02-21T18:29:20;5;3;2
44045;PMS7003;29709;52.396;16.796;2024-02-21T18:32:33;3;3;2
44045;PMS7003;29709;52.396;16.796;2024-02-21T18:35:46;2;0;0
44045;PMS7003;29709;52.396;16.796;2024-02-21T18:38:59;4;4;3
44045;PMS7003;29709;52.396;16.796;2024-02-21T18:42:12;4;3;2
44045;PMS7003;29709;52.396;16.796;2024-02-21T18:45:27;2;2;1
44045;PMS7003;29709;52.396;16.796;2024-02-21T18:48:40;4;4;2
44045;PMS7003;29709;52.396;16.796;2024-02-21T18:51:59;4;2;0
44045;PMS7003;29709;52.396;16.796;2024-02-21T18:55:12;4;3;2
44045;PMS7003;29709;52.396;16.796;2024-02-21T18:58:28;4;3;3
44045;PMS7003;29709;52.396;16.796;2024-02-21T19:01:41;6;3;2
44045;PMS7003;29709;52.396;16.796;2024-02-21T19:04:54;3;2;1
44045;PMS7003;29709;52.396;16.796;2024-02-21T19:08:08;3;2;2
44045;PMS7003;29709;52.396;16.796;2024-02-21T19:11:21;3;2;2
44045;PMS7003;29709;52.396;16.796;2024-02-21T19:14:34;5;3;2
44045;PMS7003;29709;52.396;16.796;2024-02-21T19:17:48;2;2;2
44045;PMS7003;29709;52.396;16.796;2024-02-21T19:21:01;4;4;2
44045;PMS7003;29709;52.396;16.796;2024-02-21T19:24:14;3;2;2
44045;PMS7003;29709;52.396;16.796;2024-02-21T19:27:28;5;4;3
44045;PMS7003;29709;52.396;16.796;2024-02-21T19:30:42;4;4;2
44045;PMS7003;29709;52.396;16.796;2024-02-21T19:33:55;5;4;2
44045;PMS7003;29709;52.396;16.796;2024-02-21T19:37:08;7;5;3
44045;PMS7003;29709;52.396;16.796;2024-02-21T19:40:22;3;3;2
44045;PMS7003;29709;52.396;16.796;2024-02-21T19:43:35;3;2;1
44045;PMS7003;29709;52.396;16.796;2024-02-21T19:46:50;4;2;1
44045;PMS7003;29709;52.396;16.796;2024-02-21T19:50:04;2;2;2
44045;PMS7003;29709;52.396;16.796;2024-02-21T19:53:18;6;4;4
44045;PMS7003;29709;52.396;16.796;2024-02-21T19:56:31;6;4;3
44045;PMS7003;29709;52.396;16.796;2024-02-21T19:59:45;5;3;3
44045;PMS7003;29709;52.396;16.796;2024-02-21T20:02:58;4;2;2
44045;PMS7003;29709;52.396;16.796;2024-02-21T20:06:11;2;2;2
44045;PMS7003;29709;52.396;16.796;2024-02-21T20:09:25;3;2;1
44045;PMS7003;29709;52.396;16.796;2024-02-21T20:12:38;4;4;3
44045;PMS7003;29709;52.396;16.796;2024-02-21T20:15:52;5;4;3
44045;PMS7003;29709;52.396;16.796;2024-02-21T20:19:05;1;1;1
44045;PMS7003;29709;52.396;16.796;2024-02-21T20:22:20;4;4;2
44045;PMS7003;29709;52.396;16.796;2024-02-21T20:25:33;5;3;2
44045;PMS7003;29709;52.396;16.796;2024-02-21T20:28:46;8;5;4
44045;PMS7003;29709;52.396;16.796;2024-02-21T20:32:00;6;4;3
44045;PMS7003;29709;52.396;16.796;2024-02-21T20:35:14;7;5;3
44045;PMS7003;29709;52.396;16.796;2024-02-21T20:38:27;4;4;2
44045;PMS7003;29709;52.396;16.796;2024-02-21T20:41:40;2;2;2
44045;PMS7003;29709;52.396;16.796;2024-02-21T20:44:54;4;4;2
44045;PMS7003;29709;52.396;16.796;2024-02-21T20:48:07;6;5;4
44045;PMS7003;29709;52.396;16.796;2024-02-21T20:51:20;6;5;3
44045;PMS7003;29709;52.396;16.796;2024-02-21T20:54:33;7;5;3
44045;PMS7003;29709;52.396;16.796;2024-02-21T20:57:47;6;4;3
44045;PMS7003;29709;52.396;16.796;2024-02-21T21:01:00;6;5;3
44045;PMS7003;29709;52.396;16.796;2024-02-21T21:04:14;5;4;3
44045;PMS7003;29709;52.396;16.796;2024-02-21T21:07:27;6;5;3
44045;PMS7003;29709;52.396;16.796;2024-02-21T21:10:41;5;5;3
44045;PMS7003;29709;52.396;16.796;2024-02-21T21:13:55;6;4;2
44045;PMS7003;29709;52.396;16.796;2024-02-21T21:17:08;3;3;3
44045;PMS7003;29709;52.396;16.796;2024-02-21T21:20:22;4;3;2
44045;PMS7003;29709;52.396;16.796;2024-02-21T21:23:42;5;5;3
44045;PMS7003;29709;52.396;16.796;2024-02-21T21:26:56;5;3;2
44045;PMS7003;29709;52.396;16.796;2024-02-21T21:30:09;7;3;2
44045;PMS7003;29709;52.396;16.796;2024-02-21T21:33:23;3;2;2
44045;PMS7003;29709;52.396;16.796;2024-02-21T21:36:36;4;3;2
44045;PMS7003;29709;52.396;16.796;2024-02-21T21:39:49;4;3;2
44045;PMS7003;29709;52.396;16.796;2024-02-21T21:43:08;4;2;1
44045;PMS7003;29709;52.396;16.796;2024-02-21T21:46:21;4;3;2
44045;PMS7003;29709;52.396;16.796;2024-02-21T21:49:34;2;2;1
44045;PMS7003;29709;52.396;16.796;2024-02-21T21:52:48;4;3;2
44045;PMS7003;29709;52.396;16.796;2024-02-21T21:56:02;2;2;2
44045;PMS7003;29709;52.396;16.796;2024-02-21T21:59:16;4;2;2
44045;PMS7003;29709;52.396;16.796;2024-02-21T22:02:30;7;4;3
44045;PMS7003;29709;52.396;16.796;2024-02-21T22:05:43;5;3;2
44045;PMS7003;29709;52.396;16.796;2024-02-21T22:08:56;5;4;2
44045;PMS7003;29709;52.396;16.796;2024-02-21T22:12:09;5;5;4
44045;PMS7003;29709;52.396;16.796;2024-02-21T22:15:22;5;4;2
44045;PMS7003;29709;52.396;16.796;2024-02-21T22:18:36;8;6;4
44045;PMS7003;29709;52.396;16.796;2024-02-21T22:21:49;7;6;4